Time;durP1;ratioP1;P1;durP2;ratioP2;P2;SDS_P1;SDS_P2;PMS_P1;PMS_P2;Temp;Humidity;BMP_temperature;BMP_pressure;BME280_temperature;BME280_humidity;BME280_pressure;Samples;Min_cycle;Max_cycle;Signal;HPM_P1;HPM_P2
2023/06/03 00:02:00;;;;;;;16.30;7.25;;;12.50;99.90;;;;;;5046203;28;20017;-76
2023/06/03 00:04:28;;;;;;;11.70;6.60;;;12.50;99.90;;;;;;5045418;28;20034;-74
2023/06/03 00:06:54;;;;;;;16.95;7.05;;;12.50;99.90;;;;;;5044153;28;20130;-75
2023/06/03 00:09:19;;;;;;;13.90;5.93;;;12.50;99.90;;;;;;5045589;28;20483;-75
2023/06/03 00:11:48;;;;;;;15.38;6.78;;;12.40;99.90;;;;;;5044007;28;20036;-77
2023/06/03 00:14:14;;;;;;;12.75;5.82;;;12.40;99.90;;;;;;5044081;28;20028;-76
2023/06/03 00:16:45;;;;;;;17.70;6.47;;;12.40;99.90;;;;;;5045322;28;20025;-74
2023/06/03 00:19:14;;;;;;;20.33;6.97;;;12.40;99.90;;;;;;5045379;28;20025;-73
2023/06/03 00:21:49;;;;;;;14.90;6.38;;;12.40;99.90;;;;;;5030449;28;20393;-75
2023/06/03 00:24:19;;;;;;;14.00;6.55;;;12.30;99.90;;;;;;5043744;28;20013;-78
2023/06/03 00:26:45;;;;;;;13.55;6.00;;;12.30;99.90;;;;;;5044185;28;20022;-74
2023/06/03 00:29:10;;;;;;;18.73;6.75;;;12.30;99.90;;;;;;5046461;28;20044;-73
2023/06/03 00:31:36;;;;;;;19.95;7.32;;;12.30;99.90;;;;;;5055483;28;20049;-74
2023/06/03 00:34:02;;;;;;;13.48;6.70;;;12.30;99.90;;;;;;5055697;28;20079;-73
2023/06/03 00:36:27;;;;;;;18.00;6.70;;;12.30;99.90;;;;;;5047628;28;20026;-76
2023/06/03 00:38:53;;;;;;;19.02;6.80;;;12.30;99.90;;;;;;5035476;28;20414;-78
2023/06/03 00:41:19;;;;;;;19.23;7.15;;;12.20;99.90;;;;;;5035421;28;20482;-76
2023/06/03 00:43:45;;;;;;;17.48;6.65;;;12.20;99.90;;;;;;5017287;28;20028;-73
2023/06/03 00:46:11;;;;;;;15.63;6.85;;;12.20;99.90;;;;;;5028392;28;20037;-74
2023/06/03 00:48:38;;;;;;;12.40;6.07;;;12.20;99.90;;;;;;5055265;28;20021;-73
2023/06/03 00:51:05;;;;;;;18.17;6.72;;;12.20;99.90;;;;;;5054660;28;20028;-77
2023/06/03 00:53:31;;;;;;;11.25;6.03;;;12.20;99.90;;;;;;5055573;28;20381;-73
2023/06/03 00:55:56;;;;;;;17.23;6.50;;;12.20;99.90;;;;;;5054869;28;20029;-73
2023/06/03 00:58:22;;;;;;;14.40;6.53;;;12.10;99.90;;;;;;5054276;28;20423;-75
2023/06/03 01:00:48;;;;;;;17.55;6.25;;;12.10;99.90;;;;;;5054659;28;20033;-74
2023/06/03 01:03:14;;;;;;;15.18;6.68;;;12.10;99.90;;;;;;5055761;28;20029;-73
2023/06/03 01:05:45;;;;;;;18.02;6.60;;;12.10;99.90;;;;;;5074679;28;20441;-73
2023/06/03 01:08:43;;;;;;;14.63;6.40;;;12.10;99.90;;;;;;5058947;28;20094;-77
2023/06/03 01:11:20;;;;;;;15.68;7.22;;;12.10;99.90;;;;;;5054876;28;20032;-74
2023/06/03 01:14:08;;;;;;;15.77;7.35;;;12.00;99.90;;;;;;5036737;28;20033;-73
2023/06/03 01:16:41;;;;;;;15.95;6.80;;;12.00;99.90;;;;;;5055031;28;20366;-76
2023/06/03 01:19:29;;;;;;;16.20;6.55;;;12.00;99.90;;;;;;5054616;28;20025;-75
2023/06/03 01:22:00;;;;;;;16.77;6.97;;;12.00;99.90;;;;;;5036039;28;20025;-74
2023/06/03 01:24:26;;;;;;;15.43;6.53;;;12.00;99.90;;;;;;5030816;28;20037;-76
2023/06/03 01:26:52;;;;;;;15.43;6.82;;;12.00;99.90;;;;;;5049696;28;20373;-74
2023/06/03 01:29:17;;;;;;;12.52;6.18;;;12.00;99.90;;;;;;5054574;28;20025;-74
2023/06/03 01:31:43;;;;;;;13.38;6.60;;;11.90;99.90;;;;;;5054603;28;20041;-76
2023/06/03 01:34:09;;;;;;;13.77;6.20;;;11.90;99.90;;;;;;5053638;28;20028;-72
2023/06/03 01:36:35;;;;;;;17.58;6.95;;;11.90;99.90;;;;;;5054430;28;20354;-73
2023/06/03 01:39:02;;;;;;;12.38;6.40;;;11.90;99.90;;;;;;5053753;28;20029;-73
2023/06/03 01:41:28;;;;;;;17.20;7.15;;;11.90;99.90;;;;;;5054285;28;20037;-73
2023/06/03 01:43:53;;;;;;;17.15;6.57;;;11.90;99.90;;;;;;5051675;28;20039;-74
2023/06/03 01:46:19;;;;;;;16.80;6.55;;;11.90;99.90;;;;;;5052936;28;20033;-74
2023/06/03 01:48:45;;;;;;;18.05;7.30;;;11.90;99.90;;;;;;5054236;28;20075;-74
2023/06/03 01:51:10;;;;;;;15.52;7.00;;;11.90;99.90;;;;;;5052998;28;20548;-73
2023/06/03 01:53:37;;;;;;;18.05;6.80;;;11.90;99.90;;;;;;5049103;28;20036;-75
2023/06/03 01:56:03;;;;;;;16.35;6.43;;;11.90;99.90;;;;;;5046825;28;20120;-74
2023/06/03 01:58:29;;;;;;;15.48;6.35;;;11.90;99.90;;;;;;5042406;28;20162;-74
2023/06/03 02:00:55;;;;;;;16.65;6.45;;;11.90;99.90;;;;;;5042039;28;20041;-75
2023/06/03 02:03:20;;;;;;;13.15;6.90;;;11.90;99.90;;;;;;5044538;28;20088;-73
2023/06/03 02:05:46;;;;;;;16.73;6.53;;;11.90;99.90;;;;;;5043070;28;20128;-74
2023/06/03 02:08:11;;;;;;;13.20;6.30;;;11.90;99.90;;;;;;5047159;28;20465;-73
2023/06/03 02:10:37;;;;;;;14.43;6.50;;;11.80;99.90;;;;;;5041158;28;20035;-73
2023/06/03 02:13:03;;;;;;;16.55;6.82;;;11.80;99.90;;;;;;5047926;28;20029;-73
2023/06/03 02:15:28;;;;;;;11.77;6.43;;;11.80;99.90;;;;;;5043529;28;20037;-73
2023/06/03 02:17:55;;;;;;;16.65;6.53;;;11.80;99.90;;;;;;5041984;28;20080;-72
2023/06/03 02:20:22;;;;;;;15.85;6.07;;;11.80;99.90;;;;;;5043409;28;20045;-74
2023/06/03 02:22:48;;;;;;;16.15;6.30;;;11.80;99.90;;;;;;5040672;28;20022;-73
2023/06/03 02:25:13;;;;;;;14.30;6.28;;;11.80;99.90;;;;;;5040384;28;20480;-73
2023/06/03 02:27:39;;;;;;;13.55;6.03;;;11.80;99.90;;;;;;5041274;28;20473;-74
2023/06/03 02:30:07;;;;;;;14.23;6.45;;;11.70;99.90;;;;;;5041585;28;20041;-75
2023/06/03 02:32:33;;;;;;;14.60;6.28;;;11.70;99.90;;;;;;5043345;28;20512;-75
2023/06/03 02:34:58;;;;;;;16.17;6.40;;;11.70;99.90;;;;;;5041342;28;20029;-73
2023/06/03 02:37:24;;;;;;;14.25;6.43;;;11.70;99.90;;;;;;5042055;28;20031;-73
2023/06/03 02:39:50;;;;;;;15.50;6.07;;;11.70;99.90;;;;;;5042816;28;20473;-73
2023/06/03 02:42:15;;;;;;;12.48;6.10;;;11.70;99.90;;;;;;5047003;28;20494;-73
2023/06/03 02:44:41;;;;;;;15.02;6.15;;;11.70;99.90;;;;;;5040323;28;20109;-73
2023/06/03 02:47:07;;;;;;;13.27;5.72;;;11.70;99.90;;;;;;5040568;28;20032;-72
2023/06/03 02:49:32;;;;;;;15.30;7.28;;;11.60;99.90;;;;;;5040865;28;20619;-74
2023/06/03 02:51:58;;;;;;;13.50;5.82;;;11.60;99.90;;;;;;5037749;28;20036;-75
2023/06/03 02:54:24;;;;;;;11.70;5.78;;;11.60;99.90;;;;;;5043055;28;20017;-74
2023/06/03 02:56:49;;;;;;;16.02;6.05;;;11.60;99.90;;;;;;5040124;28;20383;-77
2023/06/03 02:59:15;;;;;;;15.20;5.38;;;11.60;99.90;;;;;;5042037;28;20477;-74
2023/06/03 03:01:41;;;;;;;10.60;5.40;;;11.60;99.90;;;;;;5042407;28;20026;-73
2023/06/03 03:04:06;;;;;;;13.65;5.20;;;11.60;99.90;;;;;;5042788;28;20031;-73
2023/06/03 03:06:32;;;;;;;12.77;5.85;;;11.60;99.90;;;;;;5040449;28;20350;-74
2023/06/03 03:08:57;;;;;;;16.50;5.95;;;11.60;99.90;;;;;;5040613;28;20083;-73
2023/06/03 03:11:24;;;;;;;13.38;5.25;;;11.50;99.90;;;;;;5042238;28;20025;-72
2023/06/03 03:13:49;;;;;;;9.80;5.03;;;11.50;99.90;;;;;;5042289;28;20017;-72
2023/06/03 03:16:18;;;;;;;15.88;5.30;;;11.50;99.90;;;;;;5039456;28;20995;-72
2023/06/03 03:18:43;;;;;;;15.98;5.70;;;11.50;99.90;;;;;;5049662;28;20432;-72
2023/06/03 03:21:09;;;;;;;11.35;5.07;;;11.50;99.90;;;;;;5038538;28;20041;-72
2023/06/03 03:23:35;;;;;;;12.50;5.10;;;11.50;99.90;;;;;;5043074;28;20048;-73
2023/06/03 03:26:01;;;;;;;11.38;4.55;;;11.50;99.90;;;;;;5038306;28;20029;-73
2023/06/03 03:28:27;;;;;;;12.60;5.20;;;11.50;99.90;;;;;;5040394;28;20070;-72
2023/06/03 03:30:56;;;;;;;13.20;4.97;;;11.50;99.90;;;;;;5042599;28;20121;-74
2023/06/03 03:33:22;;;;;;;11.07;4.75;;;11.50;99.90;;;;;;5041933;28;20033;-73
2023/06/03 03:35:49;;;;;;;11.40;4.88;;;11.50;99.90;;;;;;5043854;28;20105;-72
2023/06/03 03:38:15;;;;;;;8.32;4.75;;;11.50;99.90;;;;;;5041134;28;20453;-73
2023/06/03 03:40:41;;;;;;;9.73;5.20;;;11.50;99.90;;;;;;5040464;28;20083;-76
2023/06/03 03:43:25;;;;;;;13.43;5.13;;;11.50;99.90;;;;;;5041537;28;20147;-73
2023/06/03 03:45:50;;;;;;;12.60;4.50;;;11.60;99.90;;;;;;5041447;28;20155;-73
2023/06/03 03:48:19;;;;;;;12.18;4.80;;;11.50;99.90;;;;;;5040400;28;20495;-74
2023/06/03 03:50:47;;;;;;;11.02;4.40;;;11.60;99.90;;;;;;5039168;28;20021;-73
2023/06/03 03:53:15;;;;;;;8.70;4.55;;;11.60;99.90;;;;;;5040291;28;20029;-73
2023/06/03 03:55:53;;;;;;;10.20;3.88;;;11.60;99.90;;;;;;5039376;28;20440;-72
2023/06/03 03:58:22;;;;;;;8.35;4.22;;;11.60;99.90;;;;;;5039982;28;20179;-72
2023/06/03 04:00:48;;;;;;;7.70;4.20;;;11.60;99.90;;;;;;5038006;28;20038;-71
2023/06/03 04:03:14;;;;;;;10.55;4.05;;;11.70;99.90;;;;;;5041363;28;20028;-73
2023/06/03 04:05:40;;;;;;;10.20;3.83;;;11.70;99.90;;;;;;5040667;28;20493;-72
2023/06/03 04:08:06;;;;;;;10.35;3.53;;;11.70;99.90;;;;;;5040821;28;20033;-73
2023/06/03 04:10:33;;;;;;;10.50;3.95;;;11.70;99.90;;;;;;5043099;28;20034;-75
2023/06/03 04:12:59;;;;;;;7.43;4.00;;;11.80;99.90;;;;;;5035201;28;20048;-74
2023/06/03 04:15:31;;;;;;;7.90;3.50;;;11.80;99.90;;;;;;5046056;28;20029;-74
2023/06/03 04:17:57;;;;;;;6.30;3.58;;;11.90;99.90;;;;;;5037211;28;20048;-76
2023/06/03 04:20:45;;;;;;;8.93;4.18;;;11.90;99.90;;;;;;5041453;28;20037;-73
2023/06/03 04:23:16;;;;;;;7.45;3.65;;;12.00;99.90;;;;;;5037326;28;20037;-73
2023/06/03 04:25:43;;;;;;;10.33;3.70;;;12.00;99.90;;;;;;5037135;28;20454;-74
2023/06/03 04:28:11;;;;;;;5.43;3.22;;;12.10;99.90;;;;;;5052232;28;20262;-74
2023/06/03 04:30:37;;;;;;;6.82;3.22;;;12.10;99.90;;;;;;5053829;28;20120;-73
2023/06/03 04:33:03;;;;;;;6.90;3.08;;;12.20;99.90;;;;;;5050458;28;20056;-75
2023/06/03 04:35:29;;;;;;;11.35;3.35;;;12.30;99.90;;;;;;5054381;28;20064;-73
2023/06/03 04:37:54;;;;;;;9.23;3.17;;;12.30;99.90;;;;;;5038754;28;20041;-73
2023/06/03 04:40:20;;;;;;;6.68;3.00;;;12.40;99.90;;;;;;5036993;28;20036;-74
2023/06/03 04:42:47;;;;;;;4.35;2.65;;;12.40;99.90;;;;;;5037302;28;20014;-74
2023/06/03 04:45:14;;;;;;;5.57;3.17;;;12.50;99.90;;;;;;5037408;28;20032;-74
2023/06/03 04:47:41;;;;;;;8.00;3.20;;;12.60;99.90;;;;;;5037218;28;20466;-74
2023/06/03 04:50:10;;;;;;;6.88;2.60;;;12.60;99.90;;;;;;5038778;28;20147;-73
2023/06/03 04:52:36;;;;;;;6.25;2.75;;;12.70;99.90;;;;;;5023296;28;20430;-74
2023/06/03 04:55:02;;;;;;;7.35;2.95;;;12.80;99.90;;;;;;5044032;28;20053;-73
2023/06/03 04:57:28;;;;;;;7.57;3.00;;;12.90;99.90;;;;;;5037031;28;20100;-74
2023/06/03 04:59:53;;;;;;;5.35;2.47;;;13.00;99.90;;;;;;5038270;28;20129;-73
2023/06/03 05:02:20;;;;;;;3.58;2.30;;;13.20;99.90;;;;;;5037084;28;20083;-74
2023/06/03 05:04:46;;;;;;;5.57;2.58;;;13.30;99.90;;;;;;5037139;28;20017;-75
2023/06/03 05:07:13;;;;;;;7.13;2.67;;;13.40;99.90;;;;;;5037082;28;20056;-72
2023/06/03 05:09:39;;;;;;;4.95;2.50;;;13.50;99.90;;;;;;5041216;28;20519;-74
2023/06/03 05:12:06;;;;;;;8.43;2.40;;;13.60;99.90;;;;;;5054273;28;20025;-72
2023/06/03 05:14:32;;;;;;;6.55;2.47;;;13.80;99.90;;;;;;5037463;28;20137;-74
2023/06/03 05:16:58;;;;;;;5.05;2.33;;;13.90;99.90;;;;;;5047460;28;20021;-74
2023/06/03 05:19:23;;;;;;;6.65;2.28;;;14.00;99.90;;;;;;5049780;28;20020;-72
2023/06/03 05:21:49;;;;;;;6.85;2.50;;;14.10;99.90;;;;;;5052485;28;20059;-76
2023/06/03 05:24:15;;;;;;;8.65;2.28;;;14.20;99.90;;;;;;5051091;28;20104;-77
2023/06/03 05:26:40;;;;;;;5.57;2.40;;;14.40;99.90;;;;;;5040741;28;20049;-75
2023/06/03 05:29:06;;;;;;;7.00;2.47;;;14.70;99.90;;;;;;5051073;28;20033;-75
2023/06/03 05:31:31;;;;;;;8.27;2.92;;;15.00;99.90;;;;;;5050236;28;20049;-75
2023/06/03 05:33:57;;;;;;;4.75;2.10;;;15.40;99.90;;;;;;5049374;28;20032;-73
2023/06/03 05:36:23;;;;;;;9.30;2.50;;;16.00;99.90;;;;;;5052796;28;20461;-74
2023/06/03 05:38:49;;;;;;;9.43;2.22;;;16.70;99.90;;;;;;5045486;28;20506;-73
2023/06/03 05:41:15;;;;;;;5.55;2.53;;;17.50;99.90;;;;;;5048636;28;20164;-75
2023/06/03 05:43:40;;;;;;;4.43;2.00;;;18.10;99.90;;;;;;5036376;28;20026;-73
2023/06/03 05:46:06;;;;;;;5.70;1.80;;;18.80;99.90;;;;;;5042926;28;20099;-73
2023/06/03 05:48:31;;;;;;;6.20;2.00;;;19.40;98.80;;;;;;5049221;28;20076;-73
2023/06/03 05:50:57;;;;;;;4.57;1.60;;;19.80;97.50;;;;;;5035820;28;20079;-74
2023/06/03 05:53:26;;;;;;;4.90;1.75;;;20.30;96.30;;;;;;5035490;28;20466;-74
2023/06/03 05:55:52;;;;;;;6.90;1.98;;;20.80;95.30;;;;;;5045412;28;20132;-75
2023/06/03 05:58:19;;;;;;;4.70;2.03;;;21.20;94.90;;;;;;5051475;28;20021;-74
2023/06/03 06:00:45;;;;;;;5.00;2.00;;;21.90;94.20;;;;;;5052161;28;20029;-74
2023/06/03 06:03:12;;;;;;;4.15;1.98;;;22.50;93.20;;;;;;5052693;28;20040;-75
2023/06/03 06:05:38;;;;;;;5.55;2.13;;;23.00;92.20;;;;;;5028735;28;20388;-76
2023/06/03 06:08:04;;;;;;;6.10;2.63;;;23.50;91.00;;;;;;5050725;28;20502;-74
2023/06/03 06:10:29;;;;;;;6.63;2.75;;;23.90;90.80;;;;;;5048971;28;20034;-74
2023/06/03 06:12:55;;;;;;;8.07;2.53;;;24.50;90.10;;;;;;5035648;28;20037;-75
2023/06/03 06:15:21;;;;;;;5.40;2.05;;;25.10;88.70;;;;;;5035555;28;20025;-73
2023/06/03 06:17:47;;;;;;;4.88;2.20;;;25.40;86.00;;;;;;5047801;28;20028;-72
2023/06/03 06:20:13;;;;;;;6.25;2.00;;;25.70;84.70;;;;;;5049850;28;20033;-74
2023/06/03 06:22:38;;;;;;;8.13;2.88;;;26.10;84.80;;;;;;5047923;28;20053;-76
2023/06/03 06:25:06;;;;;;;9.35;2.35;;;26.70;83.80;;;;;;5043807;28;20026;-74
2023/06/03 06:27:31;;;;;;;4.30;2.00;;;27.30;81.60;;;;;;5044941;28;20032;-75
2023/06/03 06:29:57;;;;;;;7.85;2.30;;;27.50;79.60;;;;;;5050385;28;20053;-74
2023/06/03 06:32:25;;;;;;;5.78;2.15;;;27.50;78.20;;;;;;5036960;28;20044;-73
2023/06/03 06:34:51;;;;;;;5.05;2.47;;;27.50;77.80;;;;;;5048541;28;20025;-73
2023/06/03 06:37:20;;;;;;;6.75;2.20;;;27.60;77.60;;;;;;5033478;28;20152;-74
2023/06/03 06:39:51;;;;;;;6.60;2.97;;;27.80;77.00;;;;;;5032014;28;20029;-75
2023/06/03 06:42:35;;;;;;;5.68;2.85;;;28.20;76.20;;;;;;5035275;28;20032;-75
2023/06/03 06:45:10;;;;;;;6.53;2.80;;;28.40;74.80;;;;;;5035058;28;20094;-76
2023/06/03 06:47:37;;;;;;;10.45;2.80;;;28.50;74.30;;;;;;5035056;28;20022;-75
2023/06/03 06:50:07;;;;;;;5.00;2.40;;;28.70;74.50;;;;;;5036667;28;20029;-76
2023/06/03 06:52:33;;;;;;;10.05;2.70;;;29.00;73.10;;;;;;5035002;28;20473;-74
2023/06/03 06:55:00;;;;;;;8.38;2.97;;;29.20;72.80;;;;;;5037949;28;20103;-75
2023/06/03 06:57:28;;;;;;;5.55;2.47;;;29.30;72.70;;;;;;5050920;28;20029;-75
2023/06/03 06:59:54;;;;;;;6.97;2.42;;;29.80;71.90;;;;;;5048769;28;20266;-75
2023/06/03 07:02:21;;;;;;;6.05;2.00;;;30.20;70.90;;;;;;5050885;28;20036;-73
2023/06/03 07:04:50;;;;;;;6.10;2.55;;;30.40;70.00;;;;;;5050304;28;20119;-74
2023/06/03 07:07:16;;;;;;;6.50;2.40;;;30.50;69.40;;;;;;5050792;28;20036;-74
2023/06/03 07:09:42;;;;;;;5.60;2.22;;;30.60;68.30;;;;;;5037406;28;20057;-73
2023/06/03 07:12:08;;;;;;;5.80;2.00;;;30.70;68.60;;;;;;5036330;28;20079;-74
2023/06/03 07:14:34;;;;;;;3.90;1.80;;;31.00;68.00;;;;;;5034231;28;20025;-77
2023/06/03 07:17:00;;;;;;;6.95;2.05;;;31.20;67.20;;;;;;5034461;28;20037;-75
2023/06/03 07:19:37;;;;;;;2.92;2.05;;;31.20;67.00;;;;;;5034445;28;20025;-73
2023/06/03 07:22:05;;;;;;;4.43;2.05;;;31.10;66.50;;;;;;5062864;28;20028;-76
2023/06/03 07:24:36;;;;;;;8.68;2.17;;;31.20;67.30;;;;;;5045810;28;20025;-75
2023/06/03 07:27:06;;;;;;;7.72;2.35;;;31.40;66.80;;;;;;5037793;28;20037;-74
2023/06/03 07:29:37;;;;;;;6.57;2.30;;;31.70;66.10;;;;;;5034305;28;20122;-76
2023/06/03 07:32:06;;;;;;;5.35;2.55;;;31.60;65.50;;;;;;5041067;28;20033;-76
2023/06/03 07:34:33;;;;;;;5.15;1.75;;;31.50;65.60;;;;;;5051667;28;20018;-76
2023/06/03 07:37:01;;;;;;;4.47;1.77;;;31.40;65.10;;;;;;5043499;28;20358;-74
2023/06/03 07:39:27;;;;;;;5.45;2.30;;;30.90;65.10;;;;;;5034007;28;20029;-75
2023/06/03 07:41:53;;;;;;;3.55;1.80;;;30.60;65.70;;;;;;5035011;28;20075;-74
2023/06/03 07:44:43;;;;;;;4.78;1.75;;;30.40;65.10;;;;;;5034755;28;20462;-75
2023/06/03 07:47:12;;;;;;;5.80;1.90;;;30.20;66.00;;;;;;5024783;28;20038;-74
2023/06/03 07:49:38;;;;;;;7.35;2.63;;;30.20;65.50;;;;;;5032903;28;20100;-75
2023/06/03 07:52:04;;;;;;;7.95;2.00;;;29.70;65.80;;;;;;5033783;28;20161;-74
2023/06/03 07:54:30;;;;;;;6.55;2.30;;;29.30;66.70;;;;;;5048532;28;20377;-74
2023/06/03 07:56:58;;;;;;;4.07;1.70;;;28.70;66.80;;;;;;5047217;28;20020;-75
2023/06/03 07:59:24;;;;;;;5.00;2.50;;;28.20;66.70;;;;;;5042557;28;20025;-74
2023/06/03 08:01:51;;;;;;;3.28;1.48;;;27.70;67.90;;;;;;5052751;28;20061;-76
2023/06/03 08:04:19;;;;;;;3.05;1.63;;;27.20;68.30;;;;;;5040934;28;20190;-74
2023/06/03 08:06:46;;;;;;;4.82;1.50;;;26.70;69.50;;;;;;5047383;28;20030;-74
2023/06/03 08:09:27;;;;;;;10.57;2.15;;;26.30;70.00;;;;;;5052649;28;20454;-75
2023/06/03 08:11:56;;;;;;;5.45;2.30;;;26.30;70.40;;;;;;5037601;28;20029;-76
2023/06/03 08:14:23;;;;;;;3.70;1.92;;;26.40;69.60;;;;;;5033888;28;20026;-74
2023/06/03 08:16:49;;;;;;;6.40;1.67;;;26.70;68.90;;;;;;5054099;28;20029;-75
2023/06/03 08:19:16;;;;;;;7.45;2.42;;;27.10;68.70;;;;;;5054603;28;20048;-76
2023/06/03 08:21:44;;;;;;;6.28;1.73;;;27.60;68.60;;;;;;5046700;28;20029;-75
2023/06/03 08:24:09;;;;;;;6.45;1.50;;;28.30;67.30;;;;;;5035825;28;20017;-74
2023/06/03 08:26:36;;;;;;;7.80;2.15;;;29.20;65.90;;;;;;5049814;28;20083;-74
2023/06/03 08:29:03;;;;;;;4.35;1.60;;;29.90;66.10;;;;;;5036404;28;20032;-74
2023/06/03 08:31:32;;;;;;;6.95;2.40;;;30.70;64.00;;;;;;5053410;28;20124;-74
2023/06/03 08:34:00;;;;;;;3.85;1.60;;;31.50;63.80;;;;;;5056985;28;20136;-75
2023/06/03 08:36:26;;;;;;;5.40;1.45;;;32.20;62.30;;;;;;5042866;28;20033;-76
2023/06/03 08:38:52;;;;;;;2.47;1.42;;;32.40;61.70;;;;;;5046247;28;20025;-74
2023/06/03 08:41:18;;;;;;;5.35;2.13;;;32.50;61.50;;;;;;5020436;28;21493;-74
2023/06/03 08:43:50;;;;;;;3.67;1.70;;;33.20;61.30;;;;;;5053648;28;20056;-74
2023/06/03 08:46:23;;;;;;;5.95;1.60;;;33.80;60.00;;;;;;5052103;28;20519;-73
2023/06/03 08:49:03;;;;;;;4.68;1.55;;;34.30;58.90;;;;;;5052993;28;20060;-76
2023/06/03 08:51:36;;;;;;;6.37;1.70;;;34.50;58.40;;;;;;5051076;28;20029;-75
2023/06/03 08:54:11;;;;;;;3.25;1.80;;;34.80;58.00;;;;;;5052004;28;20273;-77
2023/06/03 08:56:42;;;;;;;2.85;1.80;;;34.90;57.40;;;;;;5040425;28;20035;-74
2023/06/03 08:59:11;;;;;;;5.30;2.80;;;35.30;56.30;;;;;;5046877;28;20469;-73
2023/06/03 09:01:37;;;;;;;5.68;2.03;;;35.40;56.00;;;;;;5039329;28;20041;-75
2023/06/03 09:04:03;;;;;;;3.45;1.50;;;35.80;55.10;;;;;;5051383;28;20029;-71
2023/06/03 09:06:30;;;;;;;2.97;1.52;;;36.30;54.60;;;;;;5041223;28;20079;-71
2023/06/03 09:08:57;;;;;;;2.92;1.40;;;36.60;53.70;;;;;;5044828;28;20029;-71
2023/06/03 09:11:24;;;;;;;5.35;1.30;;;36.90;53.90;;;;;;5048203;28;20557;-72
2023/06/03 09:13:52;;;;;;;2.80;1.40;;;37.20;53.70;;;;;;5038220;28;20466;-72
2023/06/03 09:16:18;;;;;;;7.63;2.80;;;37.20;53.20;;;;;;5051310;28;20075;-74
2023/06/03 09:18:44;;;;;;;4.10;1.73;;;36.80;53.40;;;;;;5053275;28;20635;-74
2023/06/03 09:21:13;;;;;;;5.90;1.90;;;36.60;52.90;;;;;;5054580;28;20045;-74
2023/06/03 09:23:39;;;;;;;2.53;1.80;;;36.40;53.30;;;;;;5037909;28;20156;-74
2023/06/03 09:26:06;;;;;;;5.65;1.42;;;36.30;53.30;;;;;;5050933;28;20025;-75
2023/06/03 09:28:33;;;;;;;2.70;1.50;;;36.20;52.70;;;;;;5040183;28;20043;-74
2023/06/03 09:31:00;;;;;;;4.47;1.40;;;36.00;52.90;;;;;;5054011;28;20485;-72
2023/06/03 09:33:26;;;;;;;3.97;1.50;;;36.00;53.00;;;;;;5054375;28;20104;-74
2023/06/03 09:36:12;;;;;;;4.28;1.17;;;36.10;52.90;;;;;;5037551;28;20393;-72
2023/06/03 09:38:51;;;;;;;3.05;1.60;;;35.90;51.50;;;;;;5047019;28;20025;-73
2023/06/03 09:41:19;;;;;;;2.40;1.15;;;35.70;51.40;;;;;;5046740;28;20041;-73
2023/06/03 09:43:54;;;;;;;5.60;1.42;;;35.90;51.50;;;;;;5042063;28;20025;-76
2023/06/03 09:46:20;;;;;;;6.05;1.73;;;36.00;51.40;;;;;;5034327;28;20026;-73
2023/06/03 09:48:46;;;;;;;1.90;1.00;;;36.10;52.20;;;;;;5042636;28;20074;-74
2023/06/03 09:51:11;;;;;;;1.73;1.30;;;36.20;51.40;;;;;;5054077;28;20104;-73
2023/06/03 09:53:37;;;;;;;2.72;1.40;;;35.90;51.10;;;;;;5054216;28;20380;-72
2023/06/03 09:56:26;;;;;;;6.43;1.67;;;35.80;51.50;;;;;;5044303;28;20037;-74
2023/06/03 09:59:12;;;;;;;4.78;1.05;;;36.00;51.10;;;;;;5043525;28;20053;-73
2023/06/03 10:01:37;;;;;;;7.15;1.30;;;35.80;49.40;;;;;;5038378;28;20037;-74
2023/06/03 10:04:03;;;;;;;4.10;1.70;;;35.60;50.20;;;;;;5050560;28;20120;-73
2023/06/03 10:06:28;;;;;;;5.95;1.42;;;35.60;51.40;;;;;;5034034;28;20026;-73
2023/06/03 10:08:54;;;;;;;4.72;1.27;;;35.70;50.10;;;;;;5043452;28;20035;-72
2023/06/03 10:11:23;;;;;;;6.00;1.23;;;35.70;49.90;;;;;;5040149;28;20114;-71
2023/06/03 10:14:01;;;;;;;6.05;1.00;;;35.40;49.60;;;;;;5047882;28;20048;-71
2023/06/03 10:16:27;;;;;;;12.55;1.50;;;34.80;48.90;;;;;;5037026;28;20039;-73
2023/06/03 10:18:52;;;;;;;3.08;0.90;;;34.50;49.10;;;;;;5049166;28;20024;-72
2023/06/03 10:21:20;;;;;;;4.78;1.27;;;34.30;48.50;;;;;;5053428;28;20037;-74
2023/06/03 10:23:48;;;;;;;5.05;1.50;;;34.10;49.40;;;;;;5040435;28;20689;-74
2023/06/03 10:26:16;;;;;;;3.30;1.10;;;34.00;49.40;;;;;;5047848;28;20087;-73
2023/06/03 10:28:46;;;;;;;2.35;1.23;;;34.10;48.70;;;;;;5033257;28;20017;-72
2023/06/03 10:31:12;;;;;;;2.40;0.95;;;34.00;49.00;;;;;;5039673;28;20124;-72
2023/06/03 10:33:39;;;;;;;4.80;1.20;;;34.00;49.20;;;;;;5044235;28;20037;-72
2023/06/03 10:36:06;;;;;;;2.38;0.93;;;33.70;49.60;;;;;;5041128;28;20129;-75
2023/06/03 10:38:33;;;;;;;3.38;1.00;;;33.90;49.70;;;;;;5048416;28;20495;-72
2023/06/03 10:41:03;;;;;;;2.08;1.10;;;34.10;49.10;;;;;;5042030;28;20112;-72
2023/06/03 10:43:31;;;;;;;9.75;1.52;;;34.10;48.80;;;;;;5044858;28;20092;-74
2023/06/03 10:45:58;;;;;;;5.07;1.20;;;33.70;49.00;;;;;;5048731;28;20036;-72
2023/06/03 10:48:25;;;;;;;1.40;0.85;;;33.40;49.10;;;;;;5049970;28;20025;-74
2023/06/03 10:51:24;;;;;;;4.68;1.10;;;33.30;49.40;;;;;;5052863;28;20113;-73
2023/06/03 10:54:27;;;;;;;2.10;1.10;;;33.10;49.80;;;;;;5044818;28;20037;-73
2023/06/03 10:56:59;;;;;;;2.70;1.08;;;33.20;49.60;;;;;;5040210;28;20040;-73
2023/06/03 10:59:28;;;;;;;4.13;1.40;;;33.20;49.20;;;;;;5046458;28;20029;-76
2023/06/03 11:01:58;;;;;;;3.45;1.13;;;33.30;49.80;;;;;;5035389;28;20045;-72
2023/06/03 11:04:26;;;;;;;4.50;1.10;;;33.40;49.80;;;;;;5051569;28;20091;-74
2023/06/03 11:06:53;;;;;;;3.33;1.35;;;33.50;49.40;;;;;;5043672;28;20055;-72
2023/06/03 11:09:40;;;;;;;5.38;1.70;;;33.50;49.80;;;;;;5038008;28;20022;-72
2023/06/03 11:12:13;;;;;;;3.17;1.20;;;33.70;49.50;;;;;;5036445;28;20365;-72
2023/06/03 11:14:50;;;;;;;3.40;1.23;;;33.70;49.40;;;;;;5028525;28;20021;-73
2023/06/03 11:17:21;;;;;;;6.45;1.52;;;33.50;49.60;;;;;;5055685;28;20102;-73
2023/06/03 11:19:51;;;;;;;3.80;1.38;;;33.40;49.60;;;;;;5050259;28;20028;-74
2023/06/03 11:22:29;;;;;;;1.58;1.00;;;33.50;49.60;;;;;;5046683;28;20490;-72
2023/06/03 11:24:59;;;;;;;1.27;1.00;;;33.90;49.10;;;;;;5041894;28;20429;-72
2023/06/03 11:27:27;;;;;;;4.20;1.38;;;34.20;49.00;;;;;;5034321;28;20457;-76
2023/06/03 11:29:58;;;;;;;7.80;1.10;;;34.20;49.10;;;;;;5032279;28;20384;-72
2023/06/03 11:33:05;;;;;;;3.92;1.08;;;34.30;49.50;;;;;;5038775;28;20125;-71
2023/06/03 11:35:31;;;;;;;3.63;1.10;;;34.70;49.20;;;;;;5046090;28;20025;-73
2023/06/03 11:37:56;;;;;;;2.35;1.48;;;35.10;49.30;;;;;;5049735;28;20032;-72
2023/06/03 11:40:23;;;;;;;4.13;1.10;;;35.10;48.80;;;;;;5037663;28;20100;-72
2023/06/03 11:42:51;;;;;;;1.95;1.20;;;35.10;48.50;;;;;;5043399;28;20080;-71
2023/06/03 11:45:17;;;;;;;2.10;1.13;;;35.10;48.40;;;;;;5041290;28;20211;-72
2023/06/03 11:47:49;;;;;;;5.28;1.20;;;35.00;48.60;;;;;;5045401;28;20162;-71
2023/06/03 11:50:15;;;;;;;3.05;1.20;;;35.00;48.80;;;;;;5045719;28;20477;-74
2023/06/03 11:52:41;;;;;;;2.85;1.08;;;34.90;49.40;;;;;;5044034;28;20036;-71
2023/06/03 11:55:07;;;;;;;3.72;1.30;;;35.00;48.50;;;;;;5040209;28;20424;-71
2023/06/03 11:57:33;;;;;;;6.72;1.10;;;35.00;48.80;;;;;;5047451;28;20037;-73
2023/06/03 12:00:05;;;;;;;2.22;1.27;;;35.30;48.70;;;;;;5035349;28;20036;-72
2023/06/03 12:02:38;;;;;;;1.50;1.02;;;35.20;48.80;;;;;;5045185;28;20036;-73
2023/06/03 12:05:05;;;;;;;4.75;1.20;;;35.40;48.30;;;;;;5043539;28;20024;-72
2023/06/03 12:07:30;;;;;;;5.10;1.45;;;35.40;47.90;;;;;;5052236;28;20033;-77
2023/06/03 12:09:59;;;;;;;3.58;0.90;;;35.10;47.90;;;;;;5043366;28;20041;-74
2023/06/03 12:12:25;;;;;;;2.60;0.95;;;35.00;47.90;;;;;;5048518;28;20033;-72
2023/06/03 12:14:53;;;;;;;5.57;1.27;;;34.60;47.80;;;;;;5043083;28;20139;-71
2023/06/03 12:17:21;;;;;;;2.08;0.90;;;34.10;48.10;;;;;;5033518;28;20051;-72
2023/06/03 12:19:49;;;;;;;2.97;1.15;;;33.90;47.70;;;;;;5047388;28;20017;-74
2023/06/03 12:22:22;;;;;;;3.55;1.20;;;33.50;47.60;;;;;;5048646;28;20033;-73
2023/06/03 12:24:48;;;;;;;2.90;0.90;;;33.00;47.50;;;;;;5047385;28;20021;-73
2023/06/03 12:27:21;;;;;;;1.00;0.68;;;32.80;47.30;;;;;;5037510;28;20389;-77
2023/06/03 12:29:50;;;;;;;4.80;1.10;;;32.70;46.00;;;;;;5033515;28;20113;-73
2023/06/03 12:32:16;;;;;;;3.65;1.20;;;32.40;46.60;;;;;;5046928;28;20036;-77
2023/06/03 12:34:43;;;;;;;1.27;0.82;;;32.10;45.60;;;;;;5040010;28;20032;-78
2023/06/03 12:37:11;;;;;;;1.05;0.93;;;31.90;45.00;;;;;;5039597;28;20018;-77
2023/06/03 12:39:48;;;;;;;1.77;0.90;;;31.60;45.70;;;;;;5047722;28;20095;-73
2023/06/03 12:42:15;;;;;;;2.65;0.73;;;31.40;45.90;;;;;;5039962;28;20037;-77
2023/06/03 12:44:50;;;;;;;1.55;0.93;;;30.90;46.50;;;;;;5047620;28;20437;-72
2023/06/03 12:47:17;;;;;;;3.35;1.27;;;30.40;47.50;;;;;;5047874;28;20037;-74
2023/06/03 12:49:45;;;;;;;3.67;1.20;;;30.00;47.90;;;;;;5033115;28;20048;-72